sensor_id;sensor_type;location;lat;lon;timestamp;P1;durP1;ratioP1;P2;durP2;ratioP2
43710;SDS011;29309;42.682;23.372;2022-12-16T00:02:09;157.70;;;71.78;;
43710;SDS011;29309;42.682;23.372;2022-12-16T00:04:34;173.02;;;76.70;;
43710;SDS011;29309;42.682;23.372;2022-12-16T00:06:59;152.90;;;71.93;;
43710;SDS011;29309;42.682;23.372;2022-12-16T00:09:25;141.27;;;71.88;;
43710;SDS011;29309;42.682;23.372;2022-12-16T00:11:50;156.88;;;73.15;;
43710;SDS011;29309;42.682;23.372;2022-12-16T00:14:16;152.50;;;73.57;;
43710;SDS011;29309;42.682;23.372;2022-12-16T00:16:41;160.95;;;74.47;;
43710;SDS011;29309;42.682;23.372;2022-12-16T00:19:06;158.82;;;74.38;;
43710;SDS011;29309;42.682;23.372;2022-12-16T00:21:32;168.52;;;70.80;;
43710;SDS011;29309;42.682;23.372;2022-12-16T00:23:57;156.10;;;74.60;;
43710;SDS011;29309;42.682;23.372;2022-12-16T00:26:23;155.23;;;69.07;;
43710;SDS011;29309;42.682;23.372;2022-12-16T00:28:49;164.02;;;70.40;;
43710;SDS011;29309;42.682;23.372;2022-12-16T00:31:14;154.18;;;72.72;;
43710;SDS011;29309;42.682;23.372;2022-12-16T00:33:40;165.70;;;77.53;;
43710;SDS011;29309;42.682;23.372;2022-12-16T00:36:05;173.30;;;79.95;;
43710;SDS011;29309;42.682;23.372;2022-12-16T00:38:32;172.82;;;79.45;;
43710;SDS011;29309;42.682;23.372;2022-12-16T00:40:57;188.18;;;80.90;;
43710;SDS011;29309;42.682;23.372;2022-12-16T00:43:23;185.85;;;80.88;;
43710;SDS011;29309;42.682;23.372;2022-12-16T00:45:48;188.23;;;85.53;;
43710;SDS011;29309;42.682;23.372;2022-12-16T00:48:14;204.32;;;92.55;;
43710;SDS011;29309;42.682;23.372;2022-12-16T00:50:40;234.77;;;105.40;;
43710;SDS011;29309;42.682;23.372;2022-12-16T00:53:10;262.00;;;112.78;;
43710;SDS011;29309;42.682;23.372;2022-12-16T00:55:35;244.85;;;105.10;;
43710;SDS011;29309;42.682;23.372;2022-12-16T00:58:01;236.95;;;102.07;;
43710;SDS011;29309;42.682;23.372;2022-12-16T01:00:26;232.68;;;101.10;;
43710;SDS011;29309;42.682;23.372;2022-12-16T01:02:52;220.98;;;94.05;;
43710;SDS011;29309;42.682;23.372;2022-12-16T01:05:18;198.82;;;91.00;;
43710;SDS011;29309;42.682;23.372;2022-12-16T01:07:45;201.23;;;82.38;;
43710;SDS011;29309;42.682;23.372;2022-12-16T01:10:11;190.05;;;80.15;;
43710;SDS011;29309;42.682;23.372;2022-12-16T01:12:37;184.10;;;80.95;;
43710;SDS011;29309;42.682;23.372;2022-12-16T01:15:03;211.45;;;79.85;;
43710;SDS011;29309;42.682;23.372;2022-12-16T01:17:30;193.02;;;75.75;;
43710;SDS011;29309;42.682;23.372;2022-12-16T01:19:56;194.50;;;77.63;;
43710;SDS011;29309;42.682;23.372;2022-12-16T01:22:22;189.60;;;75.40;;
43710;SDS011;29309;42.682;23.372;2022-12-16T01:24:47;209.77;;;75.53;;
43710;SDS011;29309;42.682;23.372;2022-12-16T01:27:13;165.77;;;70.53;;
43710;SDS011;29309;42.682;23.372;2022-12-16T01:29:39;182.75;;;73.70;;
43710;SDS011;29309;42.682;23.372;2022-12-16T01:32:05;192.25;;;76.13;;
43710;SDS011;29309;42.682;23.372;2022-12-16T01:34:31;184.43;;;75.57;;
43710;SDS011;29309;42.682;23.372;2022-12-16T01:36:57;171.77;;;73.78;;
43710;SDS011;29309;42.682;23.372;2022-12-16T01:39:22;192.90;;;74.65;;
43710;SDS011;29309;42.682;23.372;2022-12-16T01:41:50;180.77;;;76.15;;
43710;SDS011;29309;42.682;23.372;2022-12-16T01:44:17;178.55;;;75.50;;
43710;SDS011;29309;42.682;23.372;2022-12-16T01:46:50;187.25;;;75.53;;
43710;SDS011;29309;42.682;23.372;2022-12-16T01:50:05;205.95;;;78.80;;
43710;SDS011;29309;42.682;23.372;2022-12-16T01:52:13;178.30;;;73.32;;
43710;SDS011;29309;42.682;23.372;2022-12-16T01:54:49;184.45;;;76.35;;
43710;SDS011;29309;42.682;23.372;2022-12-16T01:57:21;174.43;;;74.22;;
43710;SDS011;29309;42.682;23.372;2022-12-16T01:59:52;178.85;;;75.40;;
43710;SDS011;29309;42.682;23.372;2022-12-16T02:02:20;206.50;;;78.80;;
43710;SDS011;29309;42.682;23.372;2022-12-16T02:04:46;193.98;;;77.30;;
43710;SDS011;29309;42.682;23.372;2022-12-16T02:07:30;198.80;;;75.03;;
43710;SDS011;29309;42.682;23.372;2022-12-16T02:09:56;192.95;;;78.18;;
43710;SDS011;29309;42.682;23.372;2022-12-16T02:18:17;191.35;;;77.65;;
43710;SDS011;29309;42.682;23.372;2022-12-16T02:27:28;188.57;;;77.20;;
43710;SDS011;29309;42.682;23.372;2022-12-16T02:32:13;181.38;;;76.50;;
43710;SDS011;29309;42.682;23.372;2022-12-16T02:37:34;174.85;;;68.72;;
43710;SDS011;29309;42.682;23.372;2022-12-16T02:40:11;177.10;;;74.28;;
43710;SDS011;29309;42.682;23.372;2022-12-16T02:42:46;180.93;;;73.22;;
43710;SDS011;29309;42.682;23.372;2022-12-16T02:45:24;185.73;;;70.40;;
43710;SDS011;29309;42.682;23.372;2022-12-16T02:47:52;178.77;;;66.28;;
43710;SDS011;29309;42.682;23.372;2022-12-16T02:50:22;168.23;;;66.13;;
43710;SDS011;29309;42.682;23.372;2022-12-16T02:52:49;160.65;;;62.15;;
43710;SDS011;29309;42.682;23.372;2022-12-16T02:55:17;145.18;;;59.80;;
43710;SDS011;29309;42.682;23.372;2022-12-16T03:00:28;152.30;;;60.30;;
43710;SDS011;29309;42.682;23.372;2022-12-16T03:05:41;142.23;;;57.30;;
43710;SDS011;29309;42.682;23.372;2022-12-16T03:08:15;148.50;;;58.05;;
43710;SDS011;29309;42.682;23.372;2022-12-16T03:10:49;140.13;;;55.15;;
43710;SDS011;29309;42.682;23.372;2022-12-16T03:13:19;144.23;;;55.65;;
43710;SDS011;29309;42.682;23.372;2022-12-16T03:15:46;148.13;;;55.65;;
43710;SDS011;29309;42.682;23.372;2022-12-16T03:18:17;146.90;;;58.42;;
43710;SDS011;29309;42.682;23.372;2022-12-16T03:20:54;142.90;;;55.70;;
43710;SDS011;29309;42.682;23.372;2022-12-16T03:23:27;142.18;;;55.85;;
43710;SDS011;29309;42.682;23.372;2022-12-16T03:26:00;136.50;;;53.22;;
43710;SDS011;29309;42.682;23.372;2022-12-16T03:28:33;151.77;;;56.78;;
43710;SDS011;29309;42.682;23.372;2022-12-16T03:33:48;125.05;;;53.20;;
43710;SDS011;29309;42.682;23.372;2022-12-16T03:36:36;146.38;;;51.97;;
43710;SDS011;29309;42.682;23.372;2022-12-16T03:39:04;140.68;;;53.58;;
43710;SDS011;29309;42.682;23.372;2022-12-16T03:41:32;147.75;;;51.55;;
43710;SDS011;29309;42.682;23.372;2022-12-16T03:43:59;129.32;;;52.72;;
43710;SDS011;29309;42.682;23.372;2022-12-16T03:46:25;134.98;;;49.78;;
43710;SDS011;29309;42.682;23.372;2022-12-16T03:48:51;119.47;;;48.53;;
43710;SDS011;29309;42.682;23.372;2022-12-16T03:51:17;124.53;;;45.75;;
43710;SDS011;29309;42.682;23.372;2022-12-16T03:53:44;117.85;;;46.40;;
43710;SDS011;29309;42.682;23.372;2022-12-16T03:56:09;100.07;;;42.38;;
43710;SDS011;29309;42.682;23.372;2022-12-16T03:58:36;116.82;;;45.17;;
43710;SDS011;29309;42.682;23.372;2022-12-16T04:01:04;105.55;;;43.08;;
43710;SDS011;29309;42.682;23.372;2022-12-16T04:03:31;93.47;;;42.65;;
43710;SDS011;29309;42.682;23.372;2022-12-16T04:05:56;94.68;;;40.47;;
43710;SDS011;29309;42.682;23.372;2022-12-16T04:08:22;101.00;;;38.40;;
43710;SDS011;29309;42.682;23.372;2022-12-16T04:10:51;91.75;;;41.55;;
43710;SDS011;29309;42.682;23.372;2022-12-16T04:13:35;98.68;;;39.50;;
43710;SDS011;29309;42.682;23.372;2022-12-16T04:16:19;96.85;;;39.80;;
43710;SDS011;29309;42.682;23.372;2022-12-16T04:19:03;96.18;;;39.95;;
43710;SDS011;29309;42.682;23.372;2022-12-16T04:21:47;89.13;;;37.55;;
43710;SDS011;29309;42.682;23.372;2022-12-16T04:24:31;84.13;;;36.95;;
43710;SDS011;29309;42.682;23.372;2022-12-16T04:26:57;82.18;;;36.45;;
43710;SDS011;29309;42.682;23.372;2022-12-16T04:29:42;80.75;;;33.83;;
43710;SDS011;29309;42.682;23.372;2022-12-16T04:32:26;75.65;;;33.33;;
43710;SDS011;29309;42.682;23.372;2022-12-16T04:35:12;79.32;;;35.20;;
43710;SDS011;29309;42.682;23.372;2022-12-16T04:37:56;79.03;;;34.67;;
43710;SDS011;29309;42.682;23.372;2022-12-16T04:40:40;90.03;;;36.55;;
43710;SDS011;29309;42.682;23.372;2022-12-16T04:43:24;86.88;;;37.63;;
43710;SDS011;29309;42.682;23.372;2022-12-16T04:46:08;85.07;;;35.97;;
43710;SDS011;29309;42.682;23.372;2022-12-16T04:48:52;88.93;;;36.60;;
43710;SDS011;29309;42.682;23.372;2022-12-16T04:51:35;84.10;;;38.28;;
43710;SDS011;29309;42.682;23.372;2022-12-16T04:54:19;83.05;;;35.70;;
43710;SDS011;29309;42.682;23.372;2022-12-16T04:57:03;87.03;;;37.25;;
43710;SDS011;29309;42.682;23.372;2022-12-16T04:59:47;85.18;;;36.03;;
43710;SDS011;29309;42.682;23.372;2022-12-16T05:02:31;86.05;;;38.47;;
43710;SDS011;29309;42.682;23.372;2022-12-16T05:05:15;82.70;;;37.42;;
43710;SDS011;29309;42.682;23.372;2022-12-16T05:07:59;88.82;;;41.30;;
43710;SDS011;29309;42.682;23.372;2022-12-16T05:10:43;100.72;;;41.80;;
43710;SDS011;29309;42.682;23.372;2022-12-16T05:13:27;96.47;;;42.55;;
43710;SDS011;29309;42.682;23.372;2022-12-16T05:16:11;109.95;;;43.40;;
43710;SDS011;29309;42.682;23.372;2022-12-16T05:18:55;93.55;;;41.70;;
43710;SDS011;29309;42.682;23.372;2022-12-16T05:21:39;100.20;;;41.38;;
43710;SDS011;29309;42.682;23.372;2022-12-16T05:24:23;95.85;;;43.58;;
43710;SDS011;29309;42.682;23.372;2022-12-16T05:27:07;102.13;;;45.25;;
43710;SDS011;29309;42.682;23.372;2022-12-16T05:29:51;116.35;;;49.05;;
43710;SDS011;29309;42.682;23.372;2022-12-16T05:32:34;118.90;;;49.78;;
43710;SDS011;29309;42.682;23.372;2022-12-16T05:35:19;134.43;;;55.55;;
43710;SDS011;29309;42.682;23.372;2022-12-16T05:38:02;130.82;;;55.92;;
43710;SDS011;29309;42.682;23.372;2022-12-16T05:40:47;129.95;;;53.67;;
43710;SDS011;29309;42.682;23.372;2022-12-16T05:43:30;112.38;;;48.70;;
43710;SDS011;29309;42.682;23.372;2022-12-16T05:46:14;135.57;;;48.80;;
43710;SDS011;29309;42.682;23.372;2022-12-16T05:49:15;121.18;;;45.20;;
43710;SDS011;29309;42.682;23.372;2022-12-16T05:51:59;122.65;;;49.85;;
43710;SDS011;29309;42.682;23.372;2022-12-16T05:54:43;127.38;;;47.80;;
43710;SDS011;29309;42.682;23.372;2022-12-16T05:57:26;114.50;;;50.00;;
43710;SDS011;29309;42.682;23.372;2022-12-16T06:00:10;120.30;;;48.72;;
43710;SDS011;29309;42.682;23.372;2022-12-16T06:02:55;125.95;;;48.90;;
43710;SDS011;29309;42.682;23.372;2022-12-16T06:05:39;118.88;;;46.55;;
43710;SDS011;29309;42.682;23.372;2022-12-16T06:08:24;119.15;;;46.45;;
43710;SDS011;29309;42.682;23.372;2022-12-16T06:11:07;124.43;;;46.58;;
43710;SDS011;29309;42.682;23.372;2022-12-16T06:13:52;120.35;;;47.65;;
43710;SDS011;29309;42.682;23.372;2022-12-16T06:16:36;120.20;;;46.17;;
43710;SDS011;29309;42.682;23.372;2022-12-16T06:19:20;123.65;;;46.53;;
43710;SDS011;29309;42.682;23.372;2022-12-16T06:22:04;130.40;;;45.85;;
43710;SDS011;29309;42.682;23.372;2022-12-16T06:24:48;93.20;;;39.38;;
43710;SDS011;29309;42.682;23.372;2022-12-16T06:27:31;90.05;;;36.40;;
43710;SDS011;29309;42.682;23.372;2022-12-16T06:30:15;80.75;;;31.90;;
43710;SDS011;29309;42.682;23.372;2022-12-16T06:32:59;84.82;;;32.90;;
43710;SDS011;29309;42.682;23.372;2022-12-16T06:35:43;88.10;;;32.20;;
43710;SDS011;29309;42.682;23.372;2022-12-16T06:38:27;85.07;;;34.83;;
43710;SDS011;29309;42.682;23.372;2022-12-16T06:41:11;90.68;;;33.63;;
43710;SDS011;29309;42.682;23.372;2022-12-16T06:43:55;90.97;;;33.55;;
43710;SDS011;29309;42.682;23.372;2022-12-16T06:46:39;82.32;;;30.52;;
43710;SDS011;29309;42.682;23.372;2022-12-16T06:49:23;99.03;;;37.65;;
43710;SDS011;29309;42.682;23.372;2022-12-16T06:52:17;79.40;;;31.52;;
43710;SDS011;29309;42.682;23.372;2022-12-16T06:55:01;78.05;;;28.55;;
43710;SDS011;29309;42.682;23.372;2022-12-16T06:57:45;74.95;;;29.55;;
43710;SDS011;29309;42.682;23.372;2022-12-16T07:00:29;85.13;;;30.88;;
43710;SDS011;29309;42.682;23.372;2022-12-16T07:03:13;77.07;;;30.67;;
43710;SDS011;29309;42.682;23.372;2022-12-16T07:05:57;75.10;;;30.23;;
43710;SDS011;29309;42.682;23.372;2022-12-16T07:08:41;83.22;;;31.35;;
43710;SDS011;29309;42.682;23.372;2022-12-16T07:11:25;78.30;;;27.27;;
43710;SDS011;29309;42.682;23.372;2022-12-16T07:14:09;72.68;;;28.08;;
43710;SDS011;29309;42.682;23.372;2022-12-16T07:16:53;68.45;;;27.58;;
43710;SDS011;29309;42.682;23.372;2022-12-16T07:19:36;70.05;;;28.25;;
43710;SDS011;29309;42.682;23.372;2022-12-16T07:22:20;73.22;;;30.55;;
43710;SDS011;29309;42.682;23.372;2022-12-16T07:25:04;84.75;;;30.35;;
43710;SDS011;29309;42.682;23.372;2022-12-16T07:27:49;79.07;;;29.58;;
43710;SDS011;29309;42.682;23.372;2022-12-16T07:30:33;70.20;;;28.08;;
43710;SDS011;29309;42.682;23.372;2022-12-16T07:33:17;70.90;;;28.60;;
43710;SDS011;29309;42.682;23.372;2022-12-16T07:36:00;77.43;;;28.35;;
43710;SDS011;29309;42.682;23.372;2022-12-16T07:38:44;78.30;;;28.88;;
43710;SDS011;29309;42.682;23.372;2022-12-16T07:41:28;68.32;;;27.83;;
43710;SDS011;29309;42.682;23.372;2022-12-16T07:44:12;69.68;;;27.50;;
43710;SDS011;29309;42.682;23.372;2022-12-16T07:46:56;69.95;;;29.55;;
43710;SDS011;29309;42.682;23.372;2022-12-16T07:49:40;70.68;;;29.45;;
43710;SDS011;29309;42.682;23.372;2022-12-16T07:52:24;66.07;;;29.20;;
43710;SDS011;29309;42.682;23.372;2022-12-16T07:55:08;76.45;;;29.88;;
43710;SDS011;29309;42.682;23.372;2022-12-16T07:57:54;74.17;;;29.40;;
43710;SDS011;29309;42.682;23.372;2022-12-16T08:00:38;73.05;;;29.92;;
43710;SDS011;29309;42.682;23.372;2022-12-16T08:03:22;66.18;;;30.67;;
43710;SDS011;29309;42.682;23.372;2022-12-16T08:06:06;70.53;;;30.75;;
43710;SDS011;29309;42.682;23.372;2022-12-16T08:08:50;68.97;;;30.30;;
43710;SDS011;29309;42.682;23.372;2022-12-16T08:11:34;66.07;;;29.92;;
43710;SDS011;29309;42.682;23.372;2022-12-16T08:14:17;68.03;;;29.60;;
43710;SDS011;29309;42.682;23.372;2022-12-16T08:17:01;62.35;;;28.90;;
43710;SDS011;29309;42.682;23.372;2022-12-16T08:19:45;68.28;;;28.42;;
43710;SDS011;29309;42.682;23.372;2022-12-16T08:22:29;65.90;;;29.67;;
43710;SDS011;29309;42.682;23.372;2022-12-16T08:25:13;69.68;;;30.30;;
43710;SDS011;29309;42.682;23.372;2022-12-16T08:27:57;66.22;;;29.63;;
43710;SDS011;29309;42.682;23.372;2022-12-16T08:30:41;77.22;;;31.65;;
43710;SDS011;29309;42.682;23.372;2022-12-16T08:33:25;76.85;;;32.45;;
43710;SDS011;29309;42.682;23.372;2022-12-16T08:36:09;69.30;;;30.15;;
43710;SDS011;29309;42.682;23.372;2022-12-16T08:39:09;75.32;;;32.67;;
43710;SDS011;29309;42.682;23.372;2022-12-16T08:41:53;80.60;;;33.58;;
43710;SDS011;29309;42.682;23.372;2022-12-16T08:44:37;72.50;;;33.05;;
43710;SDS011;29309;42.682;23.372;2022-12-16T08:47:21;77.05;;;35.35;;
43710;SDS011;29309;42.682;23.372;2022-12-16T08:50:05;89.00;;;38.80;;
43710;SDS011;29309;42.682;23.372;2022-12-16T08:52:49;85.97;;;38.25;;
43710;SDS011;29309;42.682;23.372;2022-12-16T08:55:33;89.25;;;40.40;;
43710;SDS011;29309;42.682;23.372;2022-12-16T08:58:17;89.43;;;37.15;;
43710;SDS011;29309;42.682;23.372;2022-12-16T09:01:01;84.93;;;36.53;;
43710;SDS011;29309;42.682;23.372;2022-12-16T09:03:45;85.55;;;34.45;;
43710;SDS011;29309;42.682;23.372;2022-12-16T09:06:29;80.75;;;34.22;;
43710;SDS011;29309;42.682;23.372;2022-12-16T09:09:13;76.88;;;32.45;;
43710;SDS011;29309;42.682;23.372;2022-12-16T09:11:57;78.90;;;34.13;;
43710;SDS011;29309;42.682;23.372;2022-12-16T09:14:40;77.97;;;32.60;;
43710;SDS011;29309;42.682;23.372;2022-12-16T09:17:24;76.15;;;32.10;;
43710;SDS011;29309;42.682;23.372;2022-12-16T09:20:08;76.18;;;31.45;;
43710;SDS011;29309;42.682;23.372;2022-12-16T09:22:53;74.57;;;33.85;;
43710;SDS011;29309;42.682;23.372;2022-12-16T09:25:36;71.28;;;31.95;;
43710;SDS011;29309;42.682;23.372;2022-12-16T09:28:20;66.85;;;31.65;;
43710;SDS011;29309;42.682;23.372;2022-12-16T09:31:04;74.38;;;31.80;;
43710;SDS011;29309;42.682;23.372;2022-12-16T09:33:48;69.63;;;31.02;;
43710;SDS011;29309;42.682;23.372;2022-12-16T09:36:32;71.15;;;30.52;;
43710;SDS011;29309;42.682;23.372;2022-12-16T09:39:16;69.00;;;30.50;;
43710;SDS011;29309;42.682;23.372;2022-12-16T09:42:02;70.13;;;30.48;;
43710;SDS011;29309;42.682;23.372;2022-12-16T09:44:55;78.30;;;31.48;;
43710;SDS011;29309;42.682;23.372;2022-12-16T09:51:01;60.55;;;29.65;;
43710;SDS011;29309;42.682;23.372;2022-12-16T09:53:47;65.45;;;30.05;;
43710;SDS011;29309;42.682;23.372;2022-12-16T09:56:34;62.83;;;28.17;;
43710;SDS011;29309;42.682;23.372;2022-12-16T09:59:26;58.28;;;28.05;;
43710;SDS011;29309;42.682;23.372;2022-12-16T10:02:16;66.28;;;31.80;;
43710;SDS011;29309;42.682;23.372;2022-12-16T10:05:04;59.63;;;27.73;;
43710;SDS011;29309;42.682;23.372;2022-12-16T10:08:05;66.38;;;30.02;;
43710;SDS011;29309;42.682;23.372;2022-12-16T10:11:06;62.30;;;30.10;;
43710;SDS011;29309;42.682;23.372;2022-12-16T10:14:04;62.70;;;30.38;;
43710;SDS011;29309;42.682;23.372;2022-12-16T10:17:03;60.08;;;29.90;;
43710;SDS011;29309;42.682;23.372;2022-12-16T10:20:02;55.60;;;27.35;;
43710;SDS011;29309;42.682;23.372;2022-12-16T10:23:25;56.33;;;29.73;;
43710;SDS011;29309;42.682;23.372;2022-12-16T10:27:21;57.63;;;29.20;;
43710;SDS011;29309;42.682;23.372;2022-12-16T10:29:36;55.25;;;28.02;;
43710;SDS011;29309;42.682;23.372;2022-12-16T10:35:18;52.60;;;28.00;;
43710;SDS011;29309;42.682;23.372;2022-12-16T10:38:13;53.90;;;27.73;;
43710;SDS011;29309;42.682;23.372;2022-12-16T10:41:02;49.60;;;25.83;;
43710;SDS011;29309;42.682;23.372;2022-12-16T10:43:48;57.53;;;29.58;;
43710;SDS011;29309;42.682;23.372;2022-12-16T10:46:33;55.97;;;27.60;;
43710;SDS011;29309;42.682;23.372;2022-12-16T10:49:17;50.50;;;28.30;;
43710;SDS011;29309;42.682;23.372;2022-12-16T10:52:02;54.28;;;27.48;;
43710;SDS011;29309;42.682;23.372;2022-12-16T11:00:47;56.30;;;29.98;;
43710;SDS011;29309;42.682;23.372;2022-12-16T11:03:33;53.47;;;27.42;;
43710;SDS011;29309;42.682;23.372;2022-12-16T11:09:14;45.90;;;26.23;;
43710;SDS011;29309;42.682;23.372;2022-12-16T11:12:22;43.70;;;25.25;;
43710;SDS011;29309;42.682;23.372;2022-12-16T11:15:28;40.70;;;22.75;;
43710;SDS011;29309;42.682;23.372;2022-12-16T11:18:15;41.95;;;24.40;;
43710;SDS011;29309;42.682;23.372;2022-12-16T11:24:17;37.83;;;23.42;;
43710;SDS011;29309;42.682;23.372;2022-12-16T11:27:04;38.88;;;22.83;;
43710;SDS011;29309;42.682;23.372;2022-12-16T11:29:59;38.83;;;21.92;;
43710;SDS011;29309;42.682;23.372;2022-12-16T11:33:27;43.30;;;23.98;;
43710;SDS011;29309;42.682;23.372;2022-12-16T11:35:57;40.65;;;21.48;;
43710;SDS011;29309;42.682;23.372;2022-12-16T11:38:49;30.50;;;19.42;;
43710;SDS011;29309;42.682;23.372;2022-12-16T11:44:34;33.78;;;19.75;;
43710;SDS011;29309;42.682;23.372;2022-12-16T11:47:35;41.60;;;20.00;;
43710;SDS011;29309;42.682;23.372;2022-12-16T11:50:24;33.40;;;19.40;;
43710;SDS011;29309;42.682;23.372;2022-12-16T11:56:17;33.50;;;19.58;;
43710;SDS011;29309;42.682;23.372;2022-12-16T11:59:08;33.58;;;21.25;;
43710;SDS011;29309;42.682;23.372;2022-12-16T12:02:00;41.45;;;20.30;;
43710;SDS011;29309;42.682;23.372;2022-12-16T12:04:48;36.70;;;20.10;;
43710;SDS011;29309;42.682;23.372;2022-12-16T12:07:38;36.42;;;20.50;;
43710;SDS011;29309;42.682;23.372;2022-12-16T12:22:49;36.20;;;21.75;;
43710;SDS011;29309;42.682;23.372;2022-12-16T12:25:40;35.28;;;21.33;;
43710;SDS011;29309;42.682;23.372;2022-12-16T12:28:49;34.38;;;19.70;;
43710;SDS011;29309;42.682;23.372;2022-12-16T12:35:16;31.30;;;20.98;;
43710;SDS011;29309;42.682;23.372;2022-12-16T12:41:18;37.60;;;20.73;;
43710;SDS011;29309;42.682;23.372;2022-12-16T12:44:19;30.42;;;19.02;;
43710;SDS011;29309;42.682;23.372;2022-12-16T12:47:42;33.38;;;19.02;;
43710;SDS011;29309;42.682;23.372;2022-12-16T12:50:39;32.63;;;20.15;;
43710;SDS011;29309;42.682;23.372;2022-12-16T12:59:20;39.80;;;21.60;;
43710;SDS011;29309;42.682;23.372;2022-12-16T13:02:14;36.28;;;20.38;;
43710;SDS011;29309;42.682;23.372;2022-12-16T13:05:09;38.08;;;21.60;;
43710;SDS011;29309;42.682;23.372;2022-12-16T13:11:19;41.15;;;21.63;;
43710;SDS011;29309;42.682;23.372;2022-12-16T13:17:28;32.17;;;19.88;;
43710;SDS011;29309;42.682;23.372;2022-12-16T13:26:11;44.20;;;21.40;;
43710;SDS011;29309;42.682;23.372;2022-12-16T13:32:00;42.40;;;22.13;;
43710;SDS011;29309;42.682;23.372;2022-12-16T13:35:29;41.63;;;23.15;;
43710;SDS011;29309;42.682;23.372;2022-12-16T13:37:58;42.13;;;20.38;;
43710;SDS011;29309;42.682;23.372;2022-12-16T13:43:51;44.00;;;22.17;;
43710;SDS011;29309;42.682;23.372;2022-12-16T14:04:33;51.83;;;27.03;;
43710;SDS011;29309;42.682;23.372;2022-12-16T14:07:23;57.08;;;26.17;;
43710;SDS011;29309;42.682;23.372;2022-12-16T14:10:22;52.40;;;26.45;;
43710;SDS011;29309;42.682;23.372;2022-12-16T14:13:19;46.85;;;26.00;;
43710;SDS011;29309;42.682;23.372;2022-12-16T14:16:15;46.60;;;24.95;;
43710;SDS011;29309;42.682;23.372;2022-12-16T14:25:16;39.28;;;20.27;;
43710;SDS011;29309;42.682;23.372;2022-12-16T14:28:06;35.08;;;19.08;;
43710;SDS011;29309;42.682;23.372;2022-12-16T14:31:04;32.50;;;19.58;;
43710;SDS011;29309;42.682;23.372;2022-12-16T14:33:52;38.92;;;22.15;;
43710;SDS011;29309;42.682;23.372;2022-12-16T14:36:38;36.55;;;18.77;;
43710;SDS011;29309;42.682;23.372;2022-12-16T14:39:36;34.95;;;17.30;;
43710;SDS011;29309;42.682;23.372;2022-12-16T14:42:23;32.20;;;17.67;;
43710;SDS011;29309;42.682;23.372;2022-12-16T14:48:27;32.50;;;18.40;;
43710;SDS011;29309;42.682;23.372;2022-12-16T14:51:22;29.30;;;18.25;;
43710;SDS011;29309;42.682;23.372;2022-12-16T14:57:16;27.73;;;16.10;;
43710;SDS011;29309;42.682;23.372;2022-12-16T15:02:53;27.80;;;15.52;;
43710;SDS011;29309;42.682;23.372;2022-12-16T15:06:00;33.78;;;17.80;;
43710;SDS011;29309;42.682;23.372;2022-12-16T15:08:51;36.05;;;17.58;;
43710;SDS011;29309;42.682;23.372;2022-12-16T15:11:39;32.63;;;17.02;;
43710;SDS011;29309;42.682;23.372;2022-12-16T15:14:28;32.10;;;16.40;;
43710;SDS011;29309;42.682;23.372;2022-12-16T15:17:35;27.83;;;16.17;;
43710;SDS011;29309;42.682;23.372;2022-12-16T15:20:24;35.35;;;16.35;;
43710;SDS011;29309;42.682;23.372;2022-12-16T15:23:16;38.03;;;16.60;;
43710;SDS011;29309;42.682;23.372;2022-12-16T15:26:06;34.53;;;17.08;;
43710;SDS011;29309;42.682;23.372;2022-12-16T15:28:51;28.42;;;16.33;;
43710;SDS011;29309;42.682;23.372;2022-12-16T15:31:36;31.40;;;15.80;;
43710;SDS011;29309;42.682;23.372;2022-12-16T15:34:23;25.63;;;14.82;;
43710;SDS011;29309;42.682;23.372;2022-12-16T15:37:19;31.38;;;15.68;;
43710;SDS011;29309;42.682;23.372;2022-12-16T15:40:05;34.65;;;18.13;;
43710;SDS011;29309;42.682;23.372;2022-12-16T15:43:45;33.50;;;16.05;;
43710;SDS011;29309;42.682;23.372;2022-12-16T15:46:23;38.00;;;15.98;;
43710;SDS011;29309;42.682;23.372;2022-12-16T15:58:32;17.98;;;9.93;;
43710;SDS011;29309;42.682;23.372;2022-12-16T16:01:24;17.83;;;8.75;;
43710;SDS011;29309;42.682;23.372;2022-12-16T16:07:13;15.25;;;8.48;;
43710;SDS011;29309;42.682;23.372;2022-12-16T16:10:19;18.52;;;9.90;;
43710;SDS011;29309;42.682;23.372;2022-12-16T16:13:05;17.77;;;8.88;;
43710;SDS011;29309;42.682;23.372;2022-12-16T16:15:49;16.17;;;8.88;;
43710;SDS011;29309;42.682;23.372;2022-12-16T16:18:34;13.75;;;7.97;;
43710;SDS011;29309;42.682;23.372;2022-12-16T16:21:18;17.25;;;10.10;;
43710;SDS011;29309;42.682;23.372;2022-12-16T16:24:02;18.17;;;7.60;;
43710;SDS011;29309;42.682;23.372;2022-12-16T16:26:46;13.02;;;6.32;;
43710;SDS011;29309;42.682;23.372;2022-12-16T16:29:30;16.27;;;7.05;;
43710;SDS011;29309;42.682;23.372;2022-12-16T16:32:13;10.32;;;6.50;;
43710;SDS011;29309;42.682;23.372;2022-12-16T16:34:57;12.73;;;7.72;;
43710;SDS011;29309;42.682;23.372;2022-12-16T16:37:41;18.30;;;7.18;;
43710;SDS011;29309;42.682;23.372;2022-12-16T16:40:32;13.40;;;7.68;;
43710;SDS011;29309;42.682;23.372;2022-12-16T16:43:19;14.65;;;7.07;;
43710;SDS011;29309;42.682;23.372;2022-12-16T16:46:06;13.63;;;7.18;;
43710;SDS011;29309;42.682;23.372;2022-12-16T16:51:55;13.25;;;7.13;;
43710;SDS011;29309;42.682;23.372;2022-12-16T16:54:39;12.57;;;7.43;;
43710;SDS011;29309;42.682;23.372;2022-12-16T16:57:24;19.25;;;9.73;;
43710;SDS011;29309;42.682;23.372;2022-12-16T17:02:53;17.98;;;8.85;;
43710;SDS011;29309;42.682;23.372;2022-12-16T17:05:37;13.20;;;8.05;;
43710;SDS011;29309;42.682;23.372;2022-12-16T17:08:21;19.77;;;9.40;;
43710;SDS011;29309;42.682;23.372;2022-12-16T17:11:10;16.80;;;8.73;;
43710;SDS011;29309;42.682;23.372;2022-12-16T17:14:00;16.67;;;9.00;;
43710;SDS011;29309;42.682;23.372;2022-12-16T17:16:44;22.05;;;9.98;;
43710;SDS011;29309;42.682;23.372;2022-12-16T17:19:28;21.73;;;9.07;;
43710;SDS011;29309;42.682;23.372;2022-12-16T17:22:11;18.70;;;8.30;;
43710;SDS011;29309;42.682;23.372;2022-12-16T17:24:55;19.38;;;6.65;;
43710;SDS011;29309;42.682;23.372;2022-12-16T17:27:42;13.82;;;7.68;;
43710;SDS011;29309;42.682;23.372;2022-12-16T17:30:27;13.70;;;7.38;;
43710;SDS011;29309;42.682;23.372;2022-12-16T17:33:11;14.27;;;7.25;;
43710;SDS011;29309;42.682;23.372;2022-12-16T17:35:54;16.05;;;8.20;;
43710;SDS011;29309;42.682;23.372;2022-12-16T17:38:39;13.82;;;7.03;;
43710;SDS011;29309;42.682;23.372;2022-12-16T17:41:29;13.70;;;7.07;;
43710;SDS011;29309;42.682;23.372;2022-12-16T17:44:14;11.85;;;7.10;;
43710;SDS011;29309;42.682;23.372;2022-12-16T17:46:59;15.85;;;6.90;;
43710;SDS011;29309;42.682;23.372;2022-12-16T17:49:43;12.68;;;6.53;;
43710;SDS011;29309;42.682;23.372;2022-12-16T17:52:26;14.57;;;7.07;;
43710;SDS011;29309;42.682;23.372;2022-12-16T17:55:11;14.35;;;6.15;;
43710;SDS011;29309;42.682;23.372;2022-12-16T17:57:55;12.52;;;6.63;;
43710;SDS011;29309;42.682;23.372;2022-12-16T18:00:39;11.57;;;7.00;;